Time;durP1;ratioP1;P1;durP2;ratioP2;P2;SDS_P1;SDS_P2;PMS_P1;PMS_P2;Temp;Humidity;BMP_temperature;BMP_pressure;BME280_temperature;BME280_humidity;BME280_pressure;Samples;Min_cycle;Max_cycle;Signal;HPM_P1;HPM_P2
2020/12/16 00:01:35;;;;;;;11.30;9.50;;;;;;;;;;5085504;28;20028;-67
2020/12/16 00:04:00;;;;;;;12.52;9.95;;;;;;;;;;5086394;28;20077;-67
2020/12/16 00:06:26;;;;;;;13.82;10.15;;;;;;;;;;5084932;28;20040;-67
2020/12/16 00:08:51;;;;;;;11.25;9.50;;;;;;;;;;5084931;28;20039;-67
2020/12/16 00:11:16;;;;;;;11.07;8.88;;;;;;;;;;5087092;28;20088;-67
2020/12/16 00:13:42;;;;;;;10.93;8.60;;;;;;;;;;5069136;28;20473;-67
2020/12/16 00:16:08;;;;;;;10.73;8.30;;;;;;;;;;5087067;28;20059;-67
2020/12/16 00:18:33;;;;;;;14.55;8.80;;;;;;;;;;5084157;28;20106;-67
2020/12/16 00:20:58;;;;;;;15.02;10.02;;;;;;;;;;5085648;28;20039;-67
2020/12/16 00:23:24;;;;;;;11.27;8.77;;;;;;;;;;5085395;28;20036;-66
2020/12/16 00:25:49;;;;;;;12.60;8.82;;;;;;;;;;5088559;28;20059;-67
2020/12/16 00:28:14;;;;;;;12.15;9.60;;;;;;;;;;5087567;28;20043;-68
2020/12/16 00:30:40;;;;;;;14.32;10.02;;;;;;;;;;5088173;28;20035;-68
2020/12/16 00:33:05;;;;;;;15.75;9.00;;;;;;;;;;5088002;28;20020;-68
2020/12/16 00:35:31;;;;;;;13.52;10.60;;;;;;;;;;5086811;28;20509;-67
2020/12/16 00:37:59;;;;;;;15.95;11.20;;;;;;;;;;5069423;28;20124;-67
2020/12/16 00:40:25;;;;;;;17.35;11.73;;;;;;;;;;5085384;28;20060;-67
2020/12/16 00:42:51;;;;;;;16.20;11.75;;;;;;;;;;5071020;28;20062;-67
2020/12/16 00:45:17;;;;;;;13.00;10.82;;;;;;;;;;5083940;28;20040;-67
2020/12/16 00:47:42;;;;;;;13.75;11.75;;;;;;;;;;5088844;28;20028;-67
2020/12/16 00:50:11;;;;;;;19.23;12.20;;;;;;;;;;5088482;28;20036;-67
2020/12/16 00:52:37;;;;;;;16.83;12.80;;;;;;;;;;5089891;28;20024;-67
2020/12/16 00:55:03;;;;;;;18.70;14.10;;;;;;;;;;5090639;28;20036;-67
2020/12/16 00:57:29;;;;;;;18.25;13.63;;;;;;;;;;5090899;28;20378;-67
2020/12/16 00:59:54;;;;;;;14.23;12.55;;;;;;;;;;5092195;28;20028;-67
2020/12/16 01:02:19;;;;;;;16.70;12.43;;;;;;;;;;5091061;28;20036;-68
2020/12/16 01:04:45;;;;;;;20.17;13.40;;;;;;;;;;5093226;28;20035;-69
2020/12/16 01:07:10;;;;;;;21.02;14.30;;;;;;;;;;5091432;28;20035;-67
2020/12/16 01:09:36;;;;;;;16.85;14.05;;;;;;;;;;5089789;28;20036;-68
2020/12/16 01:12:01;;;;;;;17.88;13.63;;;;;;;;;;5091639;28;20162;-68
2020/12/16 01:14:27;;;;;;;25.17;14.75;;;;;;;;;;5090719;28;20028;-68
2020/12/16 01:16:52;;;;;;;23.00;14.98;;;;;;;;;;5091005;28;20103;-67
2020/12/16 01:19:17;;;;;;;24.88;14.65;;;;;;;;;;5090469;28;20047;-68
2020/12/16 01:21:43;;;;;;;22.35;15.43;;;;;;;;;;5091981;28;20061;-67
2020/12/16 01:24:08;;;;;;;21.63;15.18;;;;;;;;;;5090962;28;20024;-67
2020/12/16 01:26:46;;;;;;;23.55;16.20;;;;;;;;;;5090758;28;20039;-67
2020/12/16 01:29:15;;;;;;;21.23;15.70;;;;;;;;;;5091279;28;20431;-68
2020/12/16 01:31:43;;;;;;;21.27;15.70;;;;;;;;;;5089409;28;20032;-68
2020/12/16 01:34:09;;;;;;;24.42;15.93;;;;;;;;;;5091083;28;20055;-68
2020/12/16 01:36:41;;;;;;;22.10;15.60;;;;;;;;;;5090442;28;20028;-67
2020/12/16 01:39:11;;;;;;;21.80;16.85;;;;;;;;;;5069105;28;20032;-68
2020/12/16 01:41:41;;;;;;;20.23;14.77;;;;;;;;;;5090316;28;20084;-68
2020/12/16 01:44:17;;;;;;;29.58;16.35;;;;;;;;;;5089952;28;20127;-67
2020/12/16 01:46:55;;;;;;;20.90;15.18;;;;;;;;;;5089976;28;20762;-68
2020/12/16 01:49:22;;;;;;;28.25;17.33;;;;;;;;;;5090155;28;20028;-68
2020/12/16 01:51:53;;;;;;;24.58;15.60;;;;;;;;;;5090399;28;20024;-68
2020/12/16 01:54:20;;;;;;;;;;;;;;;;;;5090148;28;20055;-67
2020/12/16 01:56:54;;;;;;;21.02;16.00;;;;;;;;;;5073157;28;19912;-67
2020/12/16 01:59:20;;;;;;;23.60;15.23;;;;;;;;;;5090652;28;20036;-68
2020/12/16 02:01:50;;;;;;;23.63;16.08;;;;;;;;;;5090314;28;20036;-67
2020/12/16 02:04:19;;;;;;;25.30;16.23;;;;;;;;;;5072491;28;20031;-67
2020/12/16 02:06:45;;;;;;;22.75;15.75;;;;;;;;;;5088362;28;20358;-68
2020/12/16 02:09:11;;;;;;;26.33;17.35;;;;;;;;;;5089697;28;20039;-67
2020/12/16 02:11:39;;;;;;;27.90;17.65;;;;;;;;;;5090181;28;20043;-67
2020/12/16 02:14:06;;;;;;;21.50;16.50;;;;;;;;;;5090309;28;20066;-67
2020/12/16 02:16:31;;;;;;;23.33;17.65;;;;;;;;;;5089639;28;20047;-68
2020/12/16 02:18:57;;;;;;;23.95;16.95;;;;;;;;;;5088109;28;20236;-67
2020/12/16 02:21:22;;;;;;;26.77;18.85;;;;;;;;;;5089804;28;20036;-67
2020/12/16 02:23:50;;;;;;;24.83;18.73;;;;;;;;;;5090342;28;20050;-68
2020/12/16 02:26:15;;;;;;;28.83;18.80;;;;;;;;;;5087951;28;20047;-68
2020/12/16 02:28:41;;;;;;;30.02;18.67;;;;;;;;;;5088085;28;20044;-67
2020/12/16 02:31:10;;;;;;;34.10;18.80;;;;;;;;;;5090195;28;20120;-67
2020/12/16 02:33:35;;;;;;;38.05;20.05;;;;;;;;;;5089375;28;20032;-67
2020/12/16 02:36:02;;;;;;;32.90;20.27;;;;;;;;;;5089903;28;20369;-62
2020/12/16 02:38:27;;;;;;;30.10;19.38;;;;;;;;;;5088759;28;20036;-63
2020/12/16 02:40:52;;;;;;;28.52;18.83;;;;;;;;;;5089348;28;20034;-68
2020/12/16 02:43:18;;;;;;;27.17;18.88;;;;;;;;;;5089651;28;20149;-67
2020/12/16 02:45:43;;;;;;;33.08;21.02;;;;;;;;;;5070864;28;20150;-67
2020/12/16 02:48:08;;;;;;;40.33;22.55;;;;;;;;;;5089574;28;20116;-68
2020/12/16 02:50:33;;;;;;;34.20;21.17;;;;;;;;;;5089180;28;20131;-63
2020/12/16 02:52:59;;;;;;;52.58;23.45;;;;;;;;;;5089719;28;20112;-63
2020/12/16 02:55:24;;;;;;;27.77;20.55;;;;;;;;;;5088869;28;20188;-63
2020/12/16 02:57:49;;;;;;;29.08;20.52;;;;;;;;;;5089297;28;20042;-63
2020/12/16 03:00:15;;;;;;;30.42;21.65;;;;;;;;;;5071540;28;20032;-63
2020/12/16 03:02:40;;;;;;;31.92;21.25;;;;;;;;;;5088851;28;20348;-63
2020/12/16 03:05:05;;;;;;;32.58;19.88;;;;;;;;;;5089545;28;20034;-62
2020/12/16 03:07:31;;;;;;;31.60;21.25;;;;;;;;;;5088804;28;20114;-63
2020/12/16 03:09:56;;;;;;;54.85;23.48;;;;;;;;;;5089092;28;20032;-63
2020/12/16 03:12:21;;;;;;;43.20;22.88;;;;;;;;;;5088417;28;20051;-63
2020/12/16 03:14:47;;;;;;;43.40;24.30;;;;;;;;;;5071215;28;20044;-63
2020/12/16 03:17:12;;;;;;;48.15;24.23;;;;;;;;;;5089117;28;20044;-62
2020/12/16 03:19:38;;;;;;;34.50;22.73;;;;;;;;;;5088072;28;20032;-62
2020/12/16 03:22:03;;;;;;;39.25;23.88;;;;;;;;;;5085170;28;20031;-63
2020/12/16 03:24:28;;;;;;;65.32;26.13;;;;;;;;;;5088069;28;20063;-62
2020/12/16 03:26:54;;;;;;;74.93;25.67;;;;;;;;;;5088536;28;20106;-62
2020/12/16 03:29:19;;;;;;;38.30;23.60;;;;;;;;;;5070903;28;20032;-63
2020/12/16 03:31:44;;;;;;;44.20;23.88;;;;;;;;;;5083573;28;20462;-62
2020/12/16 03:34:10;;;;;;;60.38;26.10;;;;;;;;;;5088630;28;20024;-63
2020/12/16 03:36:35;;;;;;;64.05;26.02;;;;;;;;;;5088497;28;20035;-63
2020/12/16 03:39:04;;;;;;;61.60;25.02;;;;;;;;;;5088488;28;20043;-63
2020/12/16 03:41:30;;;;;;;64.03;24.30;;;;;;;;;;5087880;28;20043;-63
2020/12/16 03:43:55;;;;;;;40.00;23.90;;;;;;;;;;5088541;28;20096;-63
2020/12/16 03:46:21;;;;;;;53.30;24.95;;;;;;;;;;5088159;28;20521;-63
2020/12/16 03:48:46;;;;;;;40.95;25.08;;;;;;;;;;5087799;28;20104;-63
2020/12/16 03:51:13;;;;;;;44.88;24.25;;;;;;;;;;5088817;28;20036;-63
2020/12/16 03:53:39;;;;;;;55.33;25.27;;;;;;;;;;5088422;28;20039;-64
2020/12/16 03:56:09;;;;;;;74.68;26.58;;;;;;;;;;5088179;28;20048;-63
2020/12/16 03:58:46;;;;;;;122.07;27.42;;;;;;;;;;5070078;28;20028;-63
2020/12/16 04:01:18;;;;;;;70.88;25.05;;;;;;;;;;5087829;28;20227;-63
2020/12/16 04:03:45;;;;;;;69.63;25.65;;;;;;;;;;5087858;28;20401;-63
2020/12/16 04:06:12;;;;;;;77.55;25.75;;;;;;;;;;5088513;28;20040;-63
2020/12/16 04:08:39;;;;;;;74.90;26.48;;;;;;;;;;5088062;28;20036;-63
2020/12/16 04:11:10;;;;;;;47.17;23.42;;;;;;;;;;5087622;28;20099;-63
2020/12/16 04:13:35;;;;;;;57.38;24.45;;;;;;;;;;5070776;28;20032;-63
2020/12/16 04:16:02;;;;;;;66.85;24.30;;;;;;;;;;5088091;28;20104;-63
2020/12/16 04:18:27;;;;;;;69.50;26.08;;;;;;;;;;5087153;28;20048;-62
2020/12/16 04:20:52;;;;;;;39.70;23.75;;;;;;;;;;5089087;28;20100;-62
2020/12/16 04:23:18;;;;;;;42.25;22.25;;;;;;;;;;5087615;28;20135;-62
2020/12/16 04:25:43;;;;;;;41.35;22.25;;;;;;;;;;5087660;28;20056;-62
2020/12/16 04:28:08;;;;;;;41.60;22.88;;;;;;;;;;5087676;28;20051;-62
2020/12/16 04:30:34;;;;;;;34.75;22.40;;;;;;;;;;5087223;28;20541;-62
2020/12/16 04:32:59;;;;;;;38.05;22.98;;;;;;;;;;5088248;28;20024;-62
2020/12/16 04:35:28;;;;;;;36.45;22.27;;;;;;;;;;5087121;28;20569;-62
2020/12/16 04:37:55;;;;;;;43.15;22.42;;;;;;;;;;5087927;28;20036;-62
2020/12/16 04:40:21;;;;;;;35.47;21.63;;;;;;;;;;5087359;28;20486;-62
2020/12/16 04:43:04;;;;;;;38.55;21.15;;;;;;;;;;5088133;28;20039;-62
2020/12/16 04:45:29;;;;;;;41.20;22.58;;;;;;;;;;5085189;28;20039;-62
2020/12/16 04:47:56;;;;;;;37.78;22.10;;;;;;;;;;5087649;28;20383;-62
2020/12/16 04:50:22;;;;;;;46.72;24.65;;;;;;;;;;5053700;28;20062;-62
2020/12/16 04:52:49;;;;;;;37.58;21.85;;;;;;;;;;5087278;28;20097;-62
2020/12/16 04:55:17;;;;;;;35.33;21.38;;;;;;;;;;5086303;28;20044;-62
2020/12/16 04:57:48;;;;;;;36.78;22.65;;;;;;;;;;5087164;28;20039;-62
2020/12/16 05:00:14;;;;;;;38.78;22.10;;;;;;;;;;5087848;28;20096;-62
2020/12/16 05:02:39;;;;;;;35.85;21.20;;;;;;;;;;5087703;28;20036;-62
2020/12/16 05:05:04;;;;;;;34.63;20.77;;;;;;;;;;5087795;28;20024;-62
2020/12/16 05:07:30;;;;;;;33.15;21.00;;;;;;;;;;5087380;28;20482;-62
2020/12/16 05:09:56;;;;;;;38.80;21.77;;;;;;;;;;5085263;28;20131;-61
2020/12/16 05:12:21;;;;;;;33.20;20.27;;;;;;;;;;5087085;28;20435;-62
2020/12/16 05:14:47;;;;;;;37.05;20.77;;;;;;;;;;5087453;28;20363;-62
2020/12/16 05:17:12;;;;;;;36.25;22.00;;;;;;;;;;5087403;28;20103;-61
2020/12/16 05:19:37;;;;;;;31.38;20.90;;;;;;;;;;5086024;28;20126;-61
2020/12/16 05:22:13;;;;;;;34.38;21.35;;;;;;;;;;5086088;28;20371;-62
2020/12/16 05:24:39;;;;;;;35.75;20.98;;;;;;;;;;5087399;28;20032;-62
2020/12/16 05:27:06;;;;;;;32.55;20.42;;;;;;;;;;5087437;28;20024;-62
2020/12/16 05:29:32;;;;;;;33.90;21.13;;;;;;;;;;5086616;28;20042;-62
2020/12/16 05:31:57;;;;;;;46.20;23.20;;;;;;;;;;5087028;28;20530;-61
2020/12/16 05:34:28;;;;;;;42.47;23.20;;;;;;;;;;5086994;28;20103;-61
2020/12/16 05:36:54;;;;;;;59.92;24.67;;;;;;;;;;5086073;28;20093;-62
2020/12/16 05:39:19;;;;;;;42.45;25.27;;;;;;;;;;5089377;28;20366;-61
2020/12/16 05:41:54;;;;;;;46.33;24.92;;;;;;;;;;5088403;28;20462;-62
2020/12/16 05:44:27;;;;;;;59.75;25.17;;;;;;;;;;5090666;28;20086;-61
2020/12/16 05:46:52;;;;;;;56.50;26.10;;;;;;;;;;5088226;28;20068;-62
2020/12/16 05:49:28;;;;;;;65.90;25.35;;;;;;;;;;5090380;28;20403;-62
2020/12/16 05:51:57;;;;;;;51.45;26.95;;;;;;;;;;5090276;28;20047;-62
2020/12/16 05:54:23;;;;;;;49.85;25.52;;;;;;;;;;5089867;28;20462;-62
2020/12/16 05:57:29;;;;;;;53.47;25.88;;;;;;;;;;5091805;28;20039;-61
2020/12/16 06:00:19;;;;;;;53.35;27.00;;;;;;;;;;5090265;28;20481;-62
2020/12/16 06:02:45;;;;;;;50.33;26.63;;;;;;;;;;5090216;28;20063;-62
2020/12/16 06:05:13;;;;;;;50.90;26.10;;;;;;;;;;5089056;28;20024;-62
2020/12/16 06:07:41;;;;;;;43.83;23.63;;;;;;;;;;5089568;28;20379;-62
2020/12/16 06:10:07;;;;;;;45.97;26.23;;;;;;;;;;5088631;28;20043;-62
2020/12/16 06:12:36;;;;;;;40.85;25.05;;;;;;;;;;5088802;28;20035;-62
2020/12/16 06:15:11;;;;;;;50.00;26.50;;;;;;;;;;5090220;28;20024;-61
2020/12/16 06:17:48;;;;;;;50.33;24.95;;;;;;;;;;5089921;28;20112;-62
2020/12/16 06:20:15;;;;;;;40.42;22.75;;;;;;;;;;5087962;28;20044;-62
2020/12/16 06:22:44;;;;;;;39.67;22.42;;;;;;;;;;5089360;28;20035;-62
2020/12/16 06:25:12;;;;;;;38.38;22.35;;;;;;;;;;5072507;28;20332;-61
2020/12/16 06:27:56;;;;;;;49.15;23.85;;;;;;;;;;5086808;28;20223;-62
2020/12/16 06:30:30;;;;;;;42.88;23.25;;;;;;;;;;5084663;28;20039;-62
2020/12/16 06:33:18;;;;;;;32.38;20.88;;;;;;;;;;5081760;28;20028;-62
2020/12/16 06:35:44;;;;;;;39.45;23.83;;;;;;;;;;5089463;28;20489;-62
2020/12/16 06:38:23;;;;;;;41.22;24.10;;;;;;;;;;5086839;28;20044;-61
2020/12/16 06:40:50;;;;;;;40.45;25.77;;;;;;;;;;5089564;28;20031;-62
2020/12/16 06:43:31;;;;;;;36.90;25.40;;;;;;;;;;5088632;28;20024;-62
2020/12/16 06:46:20;;;;;;;45.17;25.33;;;;;;;;;;5068959;28;20063;-61
2020/12/16 06:48:46;;;;;;;39.67;23.23;;;;;;;;;;5087336;28;20038;-61
2020/12/16 06:51:19;;;;;;;34.22;21.90;;;;;;;;;;5087646;28;20036;-62
2020/12/16 06:53:45;;;;;;;33.95;22.05;;;;;;;;;;5087094;28;20358;-61
2020/12/16 06:56:11;;;;;;;34.70;20.40;;;;;;;;;;5086904;28;20039;-61
2020/12/16 06:58:38;;;;;;;34.38;21.75;;;;;;;;;;5088046;28;20028;-61
2020/12/16 07:01:11;;;;;;;33.50;21.08;;;;;;;;;;5054347;28;20032;-61
2020/12/16 07:03:36;;;;;;;28.30;18.15;;;;;;;;;;5085944;28;20032;-61
2020/12/16 07:06:01;;;;;;;31.38;19.05;;;;;;;;;;5085738;28;20032;-61
2020/12/16 07:08:28;;;;;;;38.58;21.80;;;;;;;;;;5085516;28;20036;-62
2020/12/16 07:10:54;;;;;;;40.03;23.85;;;;;;;;;;5087328;28;20050;-61
2020/12/16 07:13:21;;;;;;;33.30;22.42;;;;;;;;;;5084295;28;20594;-62
2020/12/16 07:15:56;;;;;;;32.75;21.67;;;;;;;;;;5084386;28;20642;-62
2020/12/16 07:18:30;;;;;;;26.38;19.52;;;;;;;;;;5083574;28;20047;-61
2020/12/16 07:21:09;;;;;;;27.05;20.13;;;;;;;;;;5086116;28;20036;-61
2020/12/16 07:23:58;;;;;;;26.58;20.10;;;;;;;;;;5082764;28;20032;-61
2020/12/16 07:26:30;;;;;;;26.08;19.95;;;;;;;;;;5087271;28;20070;-61
2020/12/16 07:28:57;;;;;;;24.35;19.08;;;;;;;;;;5084527;28;20063;-61
2020/12/16 07:31:23;;;;;;;21.55;16.67;;;;;;;;;;5086260;28;20060;-61
2020/12/16 07:33:49;;;;;;;22.67;17.90;;;;;;;;;;5086307;28;20052;-61
2020/12/16 07:36:19;;;;;;;23.13;17.58;;;;;;;;;;5085420;28;20063;-61
2020/12/16 07:38:55;;;;;;;21.08;16.08;;;;;;;;;;5087465;28;20055;-61
2020/12/16 07:41:30;;;;;;;24.27;18.75;;;;;;;;;;5083605;28;20101;-61
2020/12/16 07:43:58;;;;;;;26.08;19.13;;;;;;;;;;5085737;28;20480;-61
2020/12/16 07:46:24;;;;;;;24.75;19.52;;;;;;;;;;5083229;28;20060;-60
2020/12/16 07:48:50;;;;;;;21.35;18.90;;;;;;;;;;5086274;28;20059;-61
2020/12/16 07:51:18;;;;;;;22.55;17.35;;;;;;;;;;5085761;28;20032;-61
2020/12/16 07:53:45;;;;;;;20.67;16.15;;;;;;;;;;5084857;28;20028;-61
2020/12/16 07:56:11;;;;;;;26.15;16.98;;;;;;;;;;5067944;28;20028;-62
2020/12/16 07:58:36;;;;;;;22.33;18.67;;;;;;;;;;5085249;28;20111;-62
2020/12/16 08:01:16;;;;;;;21.95;16.60;;;;;;;;;;5087745;28;20031;-62
2020/12/16 08:03:43;;;;;;;29.35;17.70;;;;;;;;;;5086490;28;20046;-60
2020/12/16 08:06:09;;;;;;;20.02;16.02;;;;;;;;;;5083629;28;20048;-60
2020/12/16 08:08:48;;;;;;;19.23;15.88;;;;;;;;;;5084973;28;20078;-60
2020/12/16 08:11:16;;;;;;;16.75;14.13;;;;;;;;;;5083554;28;20033;-62
2020/12/16 08:13:41;;;;;;;19.45;14.57;;;;;;;;;;5066132;28;20036;-61
2020/12/16 08:16:07;;;;;;;18.45;14.63;;;;;;;;;;5082551;28;20032;-61
2020/12/16 08:18:33;;;;;;;21.20;15.05;;;;;;;;;;5083258;28;20518;-61
2020/12/16 08:20:58;;;;;;;19.65;14.40;;;;;;;;;;5085425;28;20040;-61
2020/12/16 08:23:24;;;;;;;16.70;13.88;;;;;;;;;;5086928;28;20119;-64
2020/12/16 08:25:49;;;;;;;20.25;14.13;;;;;;;;;;5073307;28;20023;-62
2020/12/16 08:28:24;;;;;;;15.77;14.07;;;;;;;;;;5081886;28;20032;-63
2020/12/16 08:30:51;;;;;;;50.28;39.75;;;;;;;;;;5063654;28;20043;-63
2020/12/16 08:33:18;;;;;;;25.92;23.17;;;;;;;;;;5085941;28;20391;-61
2020/12/16 08:35:52;;;;;;;15.68;13.98;;;;;;;;;;5084984;28;20091;-62
2020/12/16 08:38:24;;;;;;;16.50;13.18;;;;;;;;;;5087420;28;20075;-61
2020/12/16 08:40:51;;;;;;;16.60;12.77;;;;;;;;;;5069088;28;20032;-63
2020/12/16 08:43:30;;;;;;;16.55;14.20;;;;;;;;;;5069355;28;20416;-61
2020/12/16 08:46:01;;;;;;;16.67;13.88;;;;;;;;;;5084717;28;20044;-62
2020/12/16 08:48:27;;;;;;;17.92;14.07;;;;;;;;;;5085931;28;20481;-63
2020/12/16 08:51:04;;;;;;;17.85;13.88;;;;;;;;;;5087886;28;20035;-61
2020/12/16 08:53:41;;;;;;;17.98;14.43;;;;;;;;;;5085438;28;20040;-61
2020/12/16 08:56:20;;;;;;;13.85;12.40;;;;;;;;;;5086755;28;20088;-61
2020/12/16 08:58:48;;;;;;;14.60;13.20;;;;;;;;;;5084513;28;20107;-62
2020/12/16 09:01:13;;;;;;;15.77;13.15;;;;;;;;;;5084805;28;20097;-62
2020/12/16 09:03:41;;;;;;;15.88;13.30;;;;;;;;;;5083410;28;20119;-61
2020/12/16 09:06:07;;;;;;;16.75;13.32;;;;;;;;;;5081942;28;20165;-61
2020/12/16 09:08:32;;;;;;;14.80;13.05;;;;;;;;;;5085425;28;20119;-63
2020/12/16 09:10:58;;;;;;;20.90;13.48;;;;;;;;;;5085401;28;20059;-62
2020/12/16 09:13:29;;;;;;;16.85;14.15;;;;;;;;;;5088746;28;20020;-62
2020/12/16 09:15:55;;;;;;;15.23;12.68;;;;;;;;;;5088661;28;20058;-61
2020/12/16 09:18:27;;;;;;;19.02;13.70;;;;;;;;;;5087922;28;20032;-61
2020/12/16 09:20:53;;;;;;;18.48;13.52;;;;;;;;;;5088953;28;20031;-61
2020/12/16 09:23:27;;;;;;;16.38;13.00;;;;;;;;;;5088491;28;20332;-60
2020/12/16 09:25:55;;;;;;;14.82;13.02;;;;;;;;;;5072068;28;20491;-61
2020/12/16 09:28:34;;;;;;;16.75;13.00;;;;;;;;;;5087626;28;20035;-61
2020/12/16 09:31:17;;;;;;;19.15;13.80;;;;;;;;;;5089383;28;20054;-61
2020/12/16 09:33:58;;;;;;;15.85;13.20;;;;;;;;;;5087793;28;20028;-61
2020/12/16 09:36:29;;;;;;;18.05;12.55;;;;;;;;;;5090150;28;20036;-61
2020/12/16 09:38:58;;;;;;;17.43;12.17;;;;;;;;;;5077349;28;20054;-61
2020/12/16 09:41:24;;;;;;;14.13;12.43;;;;;;;;;;5086451;28;20068;-61
2020/12/16 09:43:50;;;;;;;13.32;11.50;;;;;;;;;;5086447;28;20505;-61
2020/12/16 09:46:18;;;;;;;22.88;14.85;;;;;;;;;;5084460;28;20553;-61
2020/12/16 09:48:45;;;;;;;16.33;12.65;;;;;;;;;;5088145;28;20054;-61
2020/12/16 09:51:20;;;;;;;15.30;13.55;;;;;;;;;;5087005;28;20044;-61
2020/12/16 09:53:46;;;;;;;14.60;12.95;;;;;;;;;;5088180;28;20024;-61
2020/12/16 09:56:25;;;;;;;17.23;13.18;;;;;;;;;;5085197;28;20391;-60
2020/12/16 09:58:51;;;;;;;14.25;12.75;;;;;;;;;;5086108;28;20085;-62
2020/12/16 10:01:17;;;;;;;14.40;12.13;;;;;;;;;;5084312;28;20119;-61
2020/12/16 10:03:42;;;;;;;14.05;12.40;;;;;;;;;;5088117;28;20613;-61
2020/12/16 10:06:12;;;;;;;16.88;13.38;;;;;;;;;;5067157;28;20147;-61
2020/12/16 10:08:38;;;;;;;16.65;12.85;;;;;;;;;;5087892;28;20038;-61
2020/12/16 10:11:04;;;;;;;13.95;11.52;;;;;;;;;;5087567;28;20122;-61
2020/12/16 10:13:29;;;;;;;14.38;12.38;;;;;;;;;;5083814;28;20105;-62
2020/12/16 10:15:54;;;;;;;16.38;12.15;;;;;;;;;;5084055;28;20385;-61
2020/12/16 10:18:20;;;;;;;16.20;12.40;;;;;;;;;;5081087;28;20593;-62
2020/12/16 10:20:45;;;;;;;17.17;12.82;;;;;;;;;;5083810;28;20039;-63
2020/12/16 10:23:11;;;;;;;15.30;13.70;;;;;;;;;;5085303;28;20040;-63
2020/12/16 10:25:36;;;;;;;14.13;12.15;;;;;;;;;;5085032;28;20032;-61
2020/12/16 10:28:01;;;;;;;14.45;12.65;;;;;;;;;;5082603;28;20055;-61
2020/12/16 10:30:27;;;;;;;14.48;11.88;;;;;;;;;;5083311;28;20116;-62
2020/12/16 10:32:54;;;;;;;16.25;11.77;;;;;;;;;;5084058;28;20036;-61
2020/12/16 10:35:19;;;;;;;13.32;11.70;;;;;;;;;;5082019;28;20048;-61
2020/12/16 10:37:45;;;;;;;13.57;11.38;;;;;;;;;;5083141;28;20055;-61
2020/12/16 10:40:11;;;;;;;16.98;12.48;;;;;;;;;;5077681;28;20032;-62
2020/12/16 10:42:38;;;;;;;12.27;11.00;;;;;;;;;;5083874;28;20039;-62
2020/12/16 10:45:04;;;;;;;15.10;11.70;;;;;;;;;;5084239;28;20071;-62
2020/12/16 10:47:29;;;;;;;14.10;11.82;;;;;;;;;;5087463;28;20036;-61
2020/12/16 10:49:55;;;;;;;15.95;11.90;;;;;;;;;;5085990;28;20108;-62
2020/12/16 10:52:20;;;;;;;18.05;12.80;;;;;;;;;;5084552;28;20027;-61
2020/12/16 10:54:46;;;;;;;12.35;11.05;;;;;;;;;;5084700;28;20035;-61
2020/12/16 10:57:11;;;;;;;12.13;10.82;;;;;;;;;;5086307;28;20047;-61
2020/12/16 10:59:36;;;;;;;15.77;11.07;;;;;;;;;;5085826;28;20115;-60
2020/12/16 11:02:02;;;;;;;20.23;14.32;;;;;;;;;;5083833;28;20044;-61
2020/12/16 11:04:30;;;;;;;15.40;12.30;;;;;;;;;;5082535;28;20044;-61
2020/12/16 11:06:55;;;;;;;15.32;13.63;;;;;;;;;;5053996;28;20103;-61
2020/12/16 11:09:21;;;;;;;17.35;15.07;;;;;;;;;;5079560;28;20126;-60
2020/12/16 11:11:48;;;;;;;16.73;13.15;;;;;;;;;;5082691;28;20032;-61
2020/12/16 11:14:15;;;;;;;13.90;11.30;;;;;;;;;;5079852;28;20044;-60
2020/12/16 11:16:41;;;;;;;14.15;11.55;;;;;;;;;;5083601;28;20065;-61
2020/12/16 11:19:07;;;;;;;12.57;11.25;;;;;;;;;;5061549;28;20482;-61
2020/12/16 11:21:40;;;;;;;13.45;10.80;;;;;;;;;;5084320;28;20565;-60
2020/12/16 11:24:10;;;;;;;16.02;12.48;;;;;;;;;;5084350;28;20486;-62
2020/12/16 11:26:37;;;;;;;15.98;11.85;;;;;;;;;;5084385;28;20081;-62
2020/12/16 11:29:03;;;;;;;15.10;11.30;;;;;;;;;;5082341;28;20037;-65
2020/12/16 11:31:29;;;;;;;12.07;10.75;;;;;;;;;;5064947;28;20036;-62
2020/12/16 11:33:54;;;;;;;12.85;11.50;;;;;;;;;;5079727;28;20032;-62
2020/12/16 11:36:20;;;;;;;14.82;11.13;;;;;;;;;;5077562;28;20036;-61
2020/12/16 11:38:45;;;;;;;14.77;11.70;;;;;;;;;;5083564;28;20058;-62
2020/12/16 11:41:10;;;;;;;15.82;12.05;;;;;;;;;;5080572;28;20028;-62
2020/12/16 11:43:36;;;;;;;14.38;12.27;;;;;;;;;;5080683;28;20077;-61
2020/12/16 11:46:01;;;;;;;19.80;14.10;;;;;;;;;;5058808;28;20311;-61
2020/12/16 11:48:26;;;;;;;15.10;12.98;;;;;;;;;;5080404;28;20044;-63
2020/12/16 11:50:52;;;;;;;15.80;12.80;;;;;;;;;;5086016;28;20027;-62
2020/12/16 11:53:17;;;;;;;16.25;11.45;;;;;;;;;;5081603;28;20245;-62
2020/12/16 11:55:42;;;;;;;14.73;11.88;;;;;;;;;;5083629;28;20423;-63
2020/12/16 11:58:08;;;;;;;16.35;12.45;;;;;;;;;;5083364;28;20105;-62
2020/12/16 12:00:33;;;;;;;16.52;14.60;;;;;;;;;;5084528;28;20028;-62
2020/12/16 12:02:58;;;;;;;17.60;12.30;;;;;;;;;;5082915;28;20032;-62
2020/12/16 12:05:24;;;;;;;13.90;12.40;;;;;;;;;;5080651;28;20506;-62
2020/12/16 12:07:49;;;;;;;15.73;13.98;;;;;;;;;;5084711;28;20027;-63
2020/12/16 12:10:14;;;;;;;17.60;12.38;;;;;;;;;;5082187;28;20977;-62
2020/12/16 12:12:40;;;;;;;13.82;12.00;;;;;;;;;;5083464;28;20104;-62
2020/12/16 12:15:05;;;;;;;13.95;12.30;;;;;;;;;;5085621;28;20036;-63
2020/12/16 12:17:31;;;;;;;16.25;11.57;;;;;;;;;;5083979;28;20366;-63
2020/12/16 12:19:56;;;;;;;13.90;11.40;;;;;;;;;;5083602;28;20702;-60
2020/12/16 12:22:21;;;;;;;15.43;11.85;;;;;;;;;;5080024;28;20128;-62
2020/12/16 12:24:47;;;;;;;16.48;12.68;;;;;;;;;;5086528;28;20035;-62
2020/12/16 12:27:12;;;;;;;17.05;12.75;;;;;;;;;;5085687;28;20105;-61
2020/12/16 12:29:38;;;;;;;15.63;12.00;;;;;;;;;;5069941;28;20035;-62
2020/12/16 12:32:03;;;;;;;15.27;12.07;;;;;;;;;;5082962;28;20038;-61
2020/12/16 12:34:29;;;;;;;13.73;11.43;;;;;;;;;;5086229;28;20467;-62
2020/12/16 12:36:54;;;;;;;13.77;11.30;;;;;;;;;;5087829;28;20116;-62
2020/12/16 12:39:19;;;;;;;13.95;11.38;;;;;;;;;;5085293;28;20032;-62
2020/12/16 12:41:45;;;;;;;16.75;12.02;;;;;;;;;;5087849;28;20047;-62
2020/12/16 12:44:11;;;;;;;19.52;14.57;;;;;;;;;;5083516;28;20482;-63
2020/12/16 12:46:37;;;;;;;16.02;11.63;;;;;;;;;;5088404;28;20480;-62
2020/12/16 12:49:03;;;;;;;13.90;11.07;;;;;;;;;;5091568;28;20378;-62
2020/12/16 12:51:29;;;;;;;12.32;10.80;;;;;;;;;;5090963;28;20043;-61
2020/12/16 12:53:58;;;;;;;14.55;10.70;;;;;;;;;;5068668;28;20093;-61
2020/12/16 12:56:25;;;;;;;13.70;10.77;;;;;;;;;;5071100;28;20440;-63
2020/12/16 12:58:50;;;;;;;12.90;10.65;;;;;;;;;;5074607;28;20032;-62
2020/12/16 13:01:15;;;;;;;14.75;11.30;;;;;;;;;;5088545;28;20577;-62
2020/12/16 13:03:41;;;;;;;13.15;10.95;;;;;;;;;;5090440;28;20032;-62
2020/12/16 13:06:10;;;;;;;12.93;10.18;;;;;;;;;;5088592;28;20132;-62
2020/12/16 13:08:36;;;;;;;12.18;10.25;;;;;;;;;;5087227;28;20152;-63
2020/12/16 13:11:02;;;;;;;11.90;9.93;;;;;;;;;;5087563;28;20039;-62
2020/12/16 13:13:28;;;;;;;12.85;10.20;;;;;;;;;;5088212;28;20042;-62
2020/12/16 13:15:53;;;;;;;11.30;8.98;;;;;;;;;;5090285;28;20032;-63
2020/12/16 13:18:19;;;;;;;13.07;10.30;;;;;;;;;;5087765;28;20040;-63
2020/12/16 13:20:44;;;;;;;15.32;10.40;;;;;;;;;;5090768;28;20073;-63
2020/12/16 13:23:09;;;;;;;12.93;9.65;;;;;;;;;;5089351;28;20024;-63
2020/12/16 13:25:35;;;;;;;12.07;9.68;;;;;;;;;;5090481;28;20664;-61
2020/12/16 13:28:00;;;;;;;12.18;9.98;;;;;;;;;;5089557;28;20448;-65
2020/12/16 13:30:25;;;;;;;18.98;9.85;;;;;;;;;;5086829;28;20043;-62
2020/12/16 13:32:51;;;;;;;10.95;9.73;;;;;;;;;;5089534;28;20089;-63
2020/12/16 13:35:16;;;;;;;13.02;10.48;;;;;;;;;;5086933;28;20036;-64
2020/12/16 13:37:41;;;;;;;12.57;10.52;;;;;;;;;;5087333;28;20063;-62
2020/12/16 13:40:07;;;;;;;12.95;11.30;;;;;;;;;;5088138;28;20028;-64
2020/12/16 13:42:32;;;;;;;12.88;10.35;;;;;;;;;;5087659;28;20048;-63
2020/12/16 13:44:58;;;;;;;14.20;9.82;;;;;;;;;;5087651;28;20485;-64
2020/12/16 13:47:23;;;;;;;15.45;10.77;;;;;;;;;;5089281;28;20028;-63
2020/12/16 13:49:49;;;;;;;17.52;9.98;;;;;;;;;;5089692;28;20509;-63
2020/12/16 13:52:14;;;;;;;12.40;10.38;;;;;;;;;;5089761;28;20036;-64
2020/12/16 13:54:43;;;;;;;12.38;9.90;;;;;;;;;;5089625;28;20071;-62
2020/12/16 13:57:10;;;;;;;13.52;10.05;;;;;;;;;;5072447;28;20056;-63
2020/12/16 13:59:36;;;;;;;13.45;10.73;;;;;;;;;;5088599;28;20028;-62
2020/12/16 14:02:03;;;;;;;13.68;10.50;;;;;;;;;;5088246;28;20626;-63
2020/12/16 14:04:28;;;;;;;12.50;10.95;;;;;;;;;;5081025;28;20462;-64
2020/12/16 14:06:54;;;;;;;11.23;9.68;;;;;;;;;;5084773;28;20032;-61
2020/12/16 14:09:19;;;;;;;13.10;10.18;;;;;;;;;;5088006;28;20036;-70
2020/12/16 14:11:45;;;;;;;12.93;10.80;;;;;;;;;;5085008;28;20076;-69
2020/12/16 14:14:10;;;;;;;12.82;10.80;;;;;;;;;;5084347;28;20035;-69
2020/12/16 14:16:35;;;;;;;12.05;10.75;;;;;;;;;;5087851;28;20036;-69
2020/12/16 14:19:01;;;;;;;11.75;10.30;;;;;;;;;;5085897;28;20032;-69
2020/12/16 14:21:26;;;;;;;12.25;10.68;;;;;;;;;;5087204;28;20167;-69